createdAt,value
2023-06-04T00:02:01.004Z,77.57
2023-06-04T00:04:05.649Z,77.13
2023-06-04T00:06:09.790Z,77.30
2023-06-04T00:08:13.732Z,77.55
2023-06-04T00:10:18.563Z,77.66
2023-06-04T00:12:24.045Z,77.74
2023-06-04T00:14:28.606Z,77.85
2023-06-04T00:16:32.139Z,78.02
2023-06-04T00:18:36.497Z,78.03
2023-06-04T00:20:40.574Z,78.08
2023-06-04T00:22:45.016Z,78.58
2023-06-04T00:24:48.625Z,78.06
2023-06-04T00:26:52.354Z,78.42
2023-06-04T00:28:58.516Z,78.87
2023-06-04T00:31:02.702Z,78.92
2023-06-04T00:33:08.363Z,78.62
2023-06-04T00:35:13.342Z,78.84
2023-06-04T00:37:18.370Z,79.16
2023-06-04T00:39:22.642Z,79.26
2023-06-04T00:41:27.876Z,79.39
2023-06-04T00:43:33.171Z,79.87
2023-06-04T00:45:38.550Z,79.30
2023-06-04T00:47:43.095Z,79.39
2023-06-04T00:49:47.212Z,79.41
2023-06-04T00:51:51.551Z,78.85
2023-06-04T00:53:55.795Z,79.14
2023-06-04T00:55:59.713Z,79.32
2023-06-04T00:58:05.434Z,79.15
2023-06-04T01:00:10.129Z,79.34
2023-06-04T01:02:21.020Z,79.54
2023-06-04T01:04:32.014Z,79.37
2023-06-04T01:06:40.257Z,79.84
2023-06-04T01:08:46.924Z,79.65
2023-06-04T01:10:54.076Z,79.48
2023-06-04T01:12:58.538Z,79.47
2023-06-04T01:15:02.484Z,79.88
2023-06-04T01:20:06.351Z,79.51
2023-06-04T01:22:22.202Z,80.01
2023-06-04T01:24:30.186Z,79.86
2023-06-04T01:26:34.473Z,79.86
2023-06-04T01:28:38.941Z,79.90
2023-06-04T01:30:47.928Z,79.71
2023-06-04T01:32:52.470Z,79.96
2023-06-04T01:34:59.811Z,80.18
2023-06-04T01:37:05.758Z,80.35
2023-06-04T01:39:11.573Z,80.20
2023-06-04T01:41:15.465Z,80.35
2023-06-04T01:43:19.737Z,80.51
2023-06-04T01:45:24.090Z,80.59
2023-06-04T01:47:28.467Z,80.83
2023-06-04T01:49:33.651Z,80.70
2023-06-04T01:51:38.752Z,80.72
2023-06-04T01:53:42.655Z,80.85
2023-06-04T01:55:46.526Z,80.79
2023-06-04T01:57:51.044Z,80.97
2023-06-04T01:59:57.026Z,80.74
2023-06-04T02:02:03.684Z,81.05
2023-06-04T02:04:07.801Z,81.16
2023-06-04T02:06:12.587Z,80.96
2023-06-04T02:08:20.299Z,81.18
2023-06-04T02:10:25.847Z,81.00
2023-06-04T02:12:31.031Z,80.93
2023-06-04T02:14:35.224Z,81.04
2023-06-04T02:16:40.280Z,81.12
2023-06-04T02:18:44.104Z,81.37
2023-06-04T02:20:49.176Z,81.41
2023-06-04T02:22:54.109Z,81.76
2023-06-04T02:25:00.458Z,81.60
2023-06-04T02:27:04.322Z,81.71
2023-06-04T02:29:08.098Z,81.78
2023-06-04T02:31:11.385Z,82.16
2023-06-04T02:33:16.237Z,81.97
2023-06-04T02:35:22.498Z,81.88
2023-06-04T02:37:26.381Z,81.87
2023-06-04T02:39:31.293Z,81.92
2023-06-04T02:41:36.583Z,81.88
2023-06-04T02:43:40.743Z,82.11
2023-06-04T02:45:46.068Z,82.12
2023-06-04T02:47:51.026Z,82.04
2023-06-04T02:49:56.204Z,82.44
2023-06-04T02:52:00.458Z,82.28
2023-06-04T02:54:04.614Z,82.43
2023-06-04T02:56:08.858Z,82.51
2023-06-04T02:58:16.744Z,82.05
2023-06-04T03:00:21.381Z,82.42
2023-06-04T03:02:26.252Z,82.14
2023-06-04T03:04:35.158Z,82.67
2023-06-04T03:06:40.336Z,82.42
2023-06-04T03:08:45.547Z,82.28
2023-06-04T03:10:49.238Z,82.57
2023-06-04T03:12:53.663Z,82.25
2023-06-04T03:14:59.058Z,82.36
2023-06-04T03:17:08.953Z,82.84
2023-06-04T03:19:13.912Z,82.56
2023-06-04T03:21:18.361Z,82.87
2023-06-04T03:23:22.793Z,82.68
2023-06-04T03:25:26.638Z,82.56
2023-06-04T03:27:31.781Z,82.71
2023-06-04T03:29:36.071Z,82.49
2023-06-04T03:31:43.247Z,82.70
2023-06-04T03:33:47.094Z,82.64
2023-06-04T03:35:53.686Z,82.73
2023-06-04T03:37:58.156Z,82.71
2023-06-04T03:40:03.635Z,82.77
2023-06-04T03:42:08.166Z,82.85
2023-06-04T03:44:11.740Z,82.79
2023-06-04T03:46:15.066Z,82.87
2023-06-04T03:48:19.926Z,83.17
2023-06-04T03:50:23.457Z,83.04
2023-06-04T03:52:29.122Z,83.38
2023-06-04T03:54:35.159Z,83.57
2023-06-04T03:56:39.363Z,83.19
2023-06-04T03:58:45.962Z,83.61
2023-06-04T04:00:49.683Z,83.37
2023-06-04T04:02:53.706Z,83.79
2023-06-04T04:05:02.502Z,84.00
2023-06-04T04:07:06.122Z,83.69
2023-06-04T04:09:10.046Z,84.27
2023-06-04T04:11:14.813Z,84.16
2023-06-04T04:13:18.220Z,84.14
2023-06-04T04:15:21.686Z,84.50
2023-06-04T04:17:26.421Z,84.48
2023-06-04T04:19:31.165Z,84.21
2023-06-04T04:21:38.996Z,84.21
2023-06-04T04:23:43.316Z,83.99
2023-06-04T04:25:49.302Z,83.71
2023-06-04T04:27:53.698Z,83.89
2023-06-04T04:30:01.833Z,83.91
2023-06-04T04:32:12.475Z,84.45
2023-06-04T04:34:22.939Z,84.22
2023-06-04T04:36:27.430Z,84.36
2023-06-04T04:38:34.989Z,83.76
2023-06-04T04:40:41.855Z,84.09
2023-06-04T04:42:48.310Z,83.79
2023-06-04T04:44:54.583Z,84.12
2023-06-04T04:47:01.759Z,83.97
2023-06-04T04:49:06.786Z,84.09
2023-06-04T04:51:10.669Z,84.07
2023-06-04T04:53:16.082Z,84.14
2023-06-04T04:55:21.584Z,83.93
2023-06-04T04:57:28.313Z,83.74
2023-06-04T04:59:34.755Z,83.04
2023-06-04T05:01:38.780Z,81.65
2023-06-04T05:03:43.179Z,79.93
2023-06-04T05:05:49.314Z,77.52
2023-06-04T05:07:52.901Z,76.15
2023-06-04T05:10:00.375Z,73.67
2023-06-04T05:12:06.974Z,71.62
2023-06-04T05:14:12.187Z,69.50
2023-06-04T05:16:16.875Z,67.09
2023-06-04T05:18:21.843Z,66.21
2023-06-04T05:20:28.196Z,64.40
2023-06-04T05:22:33.888Z,62.95
2023-06-04T05:24:38.476Z,61.32
2023-06-04T05:26:44.716Z,60.54
2023-06-04T05:28:58.146Z,59.22
2023-06-04T05:31:11.541Z,60.19
2023-06-04T05:33:20.799Z,60.56
2023-06-04T05:35:34.563Z,60.49
2023-06-04T05:37:41.941Z,59.85
2023-06-04T05:39:47.081Z,57.71
2023-06-04T05:41:53.099Z,56.08
2023-06-04T05:43:59.046Z,54.47
2023-06-04T05:46:04.341Z,53.21
2023-06-04T05:48:08.912Z,51.57
2023-06-04T05:50:12.982Z,49.97
2023-06-04T05:52:17.248Z,49.00
2023-06-04T05:54:23.659Z,49.06
2023-06-04T05:56:28.454Z,48.61
2023-06-04T05:58:35.743Z,47.64
2023-06-04T06:00:42.357Z,46.80
2023-06-04T06:02:50.636Z,45.66
2023-06-04T06:05:09.457Z,45.04
2023-06-04T06:07:13.215Z,44.74
2023-06-04T06:09:18.556Z,44.04
2023-06-04T06:11:23.932Z,43.37
2023-06-04T06:13:28.903Z,42.76
2023-06-04T06:15:34.355Z,42.47
2023-06-04T06:17:40.516Z,41.80
2023-06-04T06:19:45.428Z,42.55
2023-06-04T06:21:50.142Z,41.91
2023-06-04T06:23:54.513Z,41.34
2023-06-04T06:25:58.856Z,41.16
2023-06-04T06:28:06.444Z,41.81
2023-06-04T06:30:12.232Z,42.86
2023-06-04T06:32:17.389Z,43.85
2023-06-04T06:34:23.179Z,45.55
2023-06-04T06:36:27.611Z,47.06
2023-06-04T06:38:33.059Z,48.37
2023-06-04T06:40:38.469Z,49.00
2023-06-04T06:42:41.976Z,49.65
2023-06-04T06:44:48.122Z,50.08
2023-06-04T06:46:52.071Z,50.37
2023-06-04T06:48:56.441Z,51.52
2023-06-04T06:51:03.075Z,52.04
2023-06-04T06:53:06.741Z,52.39
2023-06-04T06:55:11.243Z,53.84
2023-06-04T06:57:15.213Z,54.51
2023-06-04T06:59:19.432Z,55.21
2023-06-04T07:01:23.545Z,54.07
2023-06-04T07:03:27.683Z,54.19
2023-06-04T07:05:31.454Z,54.27
2023-06-04T07:07:36.949Z,54.22
2023-06-04T07:09:40.584Z,54.39
2023-06-04T07:11:44.169Z,54.58
2023-06-04T07:13:48.121Z,54.54
2023-06-04T07:15:53.137Z,55.51
2023-06-04T07:17:57.984Z,56.14
2023-06-04T07:20:03.592Z,55.49
2023-06-04T07:22:07.773Z,56.23
2023-06-04T07:24:13.143Z,56.68
2023-06-04T07:26:18.899Z,56.43
2023-06-04T07:28:23.617Z,56.34
2023-06-04T07:30:28.021Z,57.52
2023-06-04T07:32:32.116Z,57.90
2023-06-04T07:34:38.157Z,56.74
2023-06-04T07:36:42.792Z,56.42
2023-06-04T07:38:47.053Z,55.60
2023-06-04T07:40:53.662Z,54.99
2023-06-04T07:42:57.904Z,55.50
2023-06-04T07:45:04.480Z,56.28
2023-06-04T07:47:09.317Z,56.71
2023-06-04T07:49:14.109Z,57.22
2023-06-04T07:51:20.647Z,58.27
2023-06-04T07:53:24.743Z,57.88
2023-06-04T07:55:29.436Z,56.19
2023-06-04T07:57:34.775Z,55.73
2023-06-04T07:59:38.829Z,55.02
2023-06-04T08:01:42.493Z,53.61
2023-06-04T08:03:46.252Z,53.48
2023-06-04T08:05:49.905Z,53.74
2023-06-04T08:07:54.772Z,54.63
2023-06-04T08:09:58.880Z,54.51
2023-06-04T08:12:02.557Z,53.76
2023-06-04T08:14:07.878Z,54.75
2023-06-04T08:16:12.183Z,54.70
2023-06-04T08:18:15.981Z,54.41
2023-06-04T08:20:20.480Z,54.04
2023-06-04T08:22:24.812Z,54.06
2023-06-04T08:24:28.451Z,54.01
2023-06-04T08:26:32.238Z,54.18
2023-06-04T08:28:35.965Z,54.73
2023-06-04T08:30:41.331Z,53.50
2023-06-04T08:32:45.282Z,53.81
2023-06-04T08:34:48.949Z,54.59
2023-06-04T08:36:53.081Z,55.64
2023-06-04T08:38:56.770Z,56.99
2023-06-04T08:41:09.758Z,57.58
2023-06-04T08:43:14.473Z,58.43
2023-06-04T08:45:19.437Z,58.84
2023-06-04T08:47:28.225Z,59.76
2023-06-04T08:49:36.400Z,59.79
2023-06-04T08:51:40.552Z,59.99
2023-06-04T08:53:48.939Z,60.02
2023-06-04T08:55:55.119Z,59.98
2023-06-04T08:57:59.219Z,59.88
2023-06-04T09:00:04.867Z,59.54
2023-06-04T09:02:09.445Z,59.49
2023-06-04T09:04:14.856Z,59.10
2023-06-04T09:06:18.755Z,58.57
2023-06-04T09:08:24.298Z,58.47
2023-06-04T09:10:29.184Z,57.74
2023-06-04T09:12:34.853Z,58.04
2023-06-04T09:14:38.919Z,57.40
2023-06-04T09:16:47.962Z,57.70
2023-06-04T09:18:52.784Z,57.07
2023-06-04T09:21:05.543Z,56.79
2023-06-04T09:23:17.001Z,56.34
2023-06-04T09:25:26.659Z,55.86
2023-06-04T09:27:42.570Z,54.70
2023-06-04T09:29:54.209Z,53.97
2023-06-04T09:32:01.777Z,52.46
2023-06-04T09:34:07.124Z,52.93
2023-06-04T09:36:12.665Z,52.66
2023-06-04T09:38:16.443Z,51.78
2023-06-04T09:40:22.374Z,51.58
2023-06-04T09:42:27.608Z,51.28
2023-06-04T09:44:32.485Z,51.23
2023-06-04T09:46:36.818Z,51.05
2023-06-04T09:48:41.346Z,50.52
2023-06-04T09:50:46.491Z,50.41
2023-06-04T09:52:52.661Z,50.31
2023-06-04T09:54:56.799Z,49.83
2023-06-04T09:57:02.395Z,49.09
2023-06-04T09:59:15.284Z,49.04
2023-06-04T10:01:20.325Z,48.97
2023-06-04T10:03:28.459Z,48.94
2023-06-04T10:05:35.355Z,47.91
2023-06-04T10:07:42.040Z,47.03
2023-06-04T10:09:52.968Z,47.53
2023-06-04T10:12:00.355Z,46.61
2023-06-04T10:14:10.470Z,46.06
2023-06-04T10:16:25.052Z,47.08
2023-06-04T10:18:37.574Z,46.16
2023-06-04T10:20:43.833Z,46.21
2023-06-04T10:22:52.950Z,45.36
2023-06-04T10:25:00.714Z,45.92
2023-06-04T10:27:11.861Z,46.52
2023-06-04T10:29:18.115Z,46.00
2023-06-04T10:31:22.709Z,46.67
2023-06-04T10:33:28.204Z,44.96
2023-06-04T10:35:33.548Z,45.50
2023-06-04T10:37:39.228Z,45.81
2023-06-04T10:39:54.200Z,45.74
2023-06-04T10:42:03.959Z,44.18
2023-06-04T10:44:10.854Z,44.94
2023-06-04T10:46:16.516Z,45.52
2023-06-04T10:48:21.818Z,46.15
2023-06-04T10:50:25.848Z,46.29
2023-06-04T10:52:29.971Z,46.56
2023-06-04T10:54:34.114Z,45.91
2023-06-04T10:56:39.243Z,45.87
2023-06-04T10:58:44.659Z,45.95
2023-06-04T11:00:51.127Z,46.06
2023-06-04T11:02:56.769Z,45.23
2023-06-04T11:05:07.402Z,44.61
2023-06-04T11:07:11.349Z,44.63
2023-06-04T11:09:18.156Z,44.27
2023-06-04T11:11:22.726Z,44.80
2023-06-04T11:13:27.238Z,44.10
2023-06-04T11:15:42.294Z,43.87
2023-06-04T11:17:54.737Z,43.33
2023-06-04T11:19:58.912Z,43.07
2023-06-04T11:22:03.229Z,42.59
2023-06-04T11:24:09.806Z,42.28
2023-06-04T11:26:13.322Z,41.43
2023-06-04T11:28:18.459Z,41.06
2023-06-04T11:30:22.932Z,41.70
2023-06-04T11:32:28.294Z,41.46
2023-06-04T11:34:33.280Z,41.07
2023-06-04T11:36:37.706Z,41.07
2023-06-04T11:38:42.531Z,38.22
2023-06-04T11:40:46.738Z,35.87
2023-06-04T11:42:51.286Z,36.57
2023-06-04T11:44:59.616Z,35.38
2023-06-04T11:47:03.581Z,35.28
2023-06-04T11:49:08.695Z,35.44
2023-06-04T11:51:13.071Z,35.18
2023-06-04T11:53:17.374Z,35.68
2023-06-04T11:55:22.021Z,36.80
2023-06-04T11:57:26.426Z,39.25
2023-06-04T11:59:34.620Z,41.96
2023-06-04T12:01:43.112Z,42.86
2023-06-04T12:03:48.146Z,43.20
2023-06-04T12:05:53.594Z,43.25
2023-06-04T12:08:07.833Z,42.83
2023-06-04T12:10:13.167Z,43.40
2023-06-04T12:12:17.137Z,43.18
2023-06-04T12:14:23.196Z,43.79
2023-06-04T12:16:27.600Z,44.26
2023-06-04T12:18:32.215Z,44.67
2023-06-04T12:20:40.648Z,44.87
2023-06-04T12:22:49.429Z,44.40
2023-06-04T12:24:55.764Z,44.39
2023-06-04T12:27:10.596Z,44.45
2023-06-04T12:29:16.828Z,43.94
2023-06-04T12:31:20.399Z,44.19
2023-06-04T12:33:24.105Z,44.94
2023-06-04T12:35:29.284Z,45.39
2023-06-04T12:37:32.933Z,45.76
2023-06-04T12:39:40.607Z,46.38
2023-06-04T12:41:48.376Z,47.17
2023-06-04T12:43:52.152Z,47.37
2023-06-04T12:45:56.214Z,47.99
2023-06-04T12:48:00.370Z,48.51
2023-06-04T12:50:04.437Z,48.51
2023-06-04T12:52:09.681Z,48.72
2023-06-04T12:54:13.762Z,48.99
2023-06-04T12:56:19.252Z,49.47
2023-06-04T12:58:23.029Z,50.04
2023-06-04T13:00:27.491Z,49.76
2023-06-04T13:02:32.252Z,50.43
2023-06-04T13:04:35.889Z,50.19
2023-06-04T13:06:40.469Z,50.08
2023-06-04T13:08:46.072Z,50.16
2023-06-04T13:10:52.326Z,49.96
2023-06-04T13:13:02.922Z,49.51
2023-06-04T13:15:08.871Z,49.76
2023-06-04T13:17:22.067Z,50.52
2023-06-04T13:19:27.966Z,50.88
2023-06-04T13:21:32.328Z,50.59
2023-06-04T13:23:49.805Z,51.21
2023-06-04T13:25:55.791Z,51.05
2023-06-04T13:28:01.848Z,51.05
2023-06-04T13:30:07.797Z,51.16
2023-06-04T13:32:13.183Z,51.69
2023-06-04T13:34:26.971Z,51.99
2023-06-04T13:36:33.176Z,52.12
2023-06-04T13:38:37.123Z,51.99
2023-06-04T13:40:41.490Z,51.36
2023-06-04T13:42:46.344Z,50.96
2023-06-04T13:44:51.297Z,51.95
2023-06-04T13:46:57.185Z,52.22
2023-06-04T13:49:01.335Z,52.90
2023-06-04T13:51:06.282Z,51.89
2023-06-04T13:53:11.505Z,51.90
2023-06-04T13:55:15.784Z,52.96
2023-06-04T13:57:19.886Z,52.82
2023-06-04T13:59:23.624Z,52.55
2023-06-04T14:01:29.721Z,52.64
2023-06-04T14:03:34.049Z,52.78
2023-06-04T14:05:38.101Z,52.87
2023-06-04T14:07:41.589Z,52.33
2023-06-04T14:09:45.790Z,52.44
2023-06-04T14:11:51.958Z,52.72
2023-06-04T14:13:56.113Z,53.11
2023-06-04T14:15:59.722Z,53.45
2023-06-04T14:18:06.637Z,53.45
2023-06-04T14:20:11.947Z,53.18
2023-06-04T14:22:16.545Z,53.28
2023-06-04T14:24:20.478Z,53.07
2023-06-04T14:26:26.546Z,53.12
2023-06-04T14:28:30.686Z,53.65
2023-06-04T14:30:34.855Z,53.55
2023-06-04T14:32:41.707Z,53.43
2023-06-04T14:34:46.829Z,53.78
2023-06-04T14:36:50.725Z,54.46
2023-06-04T14:38:54.426Z,53.67
2023-06-04T14:40:59.109Z,53.76
2023-06-04T14:43:04.441Z,53.78
2023-06-04T14:45:11.281Z,53.53
2023-06-04T14:47:15.473Z,53.68
2023-06-04T14:49:19.225Z,53.42
2023-06-04T14:51:24.849Z,54.06
2023-06-04T14:53:28.544Z,54.55
2023-06-04T14:55:32.028Z,55.10
2023-06-04T14:57:35.979Z,55.28
2023-06-04T14:59:42.680Z,55.18
2023-06-04T15:01:47.768Z,55.01
2023-06-04T15:03:52.342Z,55.50
2023-06-04T15:06:10.678Z,56.87
2023-06-04T15:08:25.631Z,57.54
2023-06-04T15:10:30.005Z,57.01
2023-06-04T15:12:37.867Z,57.14
2023-06-04T15:14:41.681Z,57.69
2023-06-04T15:16:45.936Z,57.40
2023-06-04T15:18:51.381Z,55.54
2023-06-04T15:20:56.749Z,55.53
2023-06-04T15:23:01.395Z,55.70
2023-06-04T15:25:08.117Z,54.98
2023-06-04T15:27:12.533Z,55.99
2023-06-04T15:29:16.768Z,56.47
2023-06-04T15:31:21.571Z,57.02
2023-06-04T15:33:26.293Z,57.03
2023-06-04T15:35:30.170Z,56.49
2023-06-04T15:37:33.913Z,57.10
2023-06-04T15:39:38.418Z,56.10
2023-06-04T15:41:43.919Z,55.89
2023-06-04T15:43:47.637Z,56.26
2023-06-04T15:45:51.595Z,56.70
2023-06-04T15:47:55.330Z,56.73
2023-06-04T15:49:59.478Z,56.76
2023-06-04T15:52:05.158Z,56.61
2023-06-04T15:54:10.335Z,56.32
2023-06-04T15:56:14.871Z,56.36
2023-06-04T15:58:20.619Z,55.94
2023-06-04T16:00:25.679Z,56.50
2023-06-04T16:02:32.054Z,56.71
2023-06-04T16:04:37.107Z,56.08
2023-06-04T16:06:42.219Z,54.89
2023-06-04T16:08:45.938Z,54.03
2023-06-04T16:10:52.466Z,54.33
2023-06-04T16:12:56.136Z,54.02
2023-06-04T16:15:01.502Z,53.91
2023-06-04T16:17:05.409Z,54.03
2023-06-04T16:19:09.016Z,54.08
2023-06-04T16:21:14.790Z,54.43
2023-06-04T16:23:20.179Z,54.23
2023-06-04T16:25:25.564Z,53.40
2023-06-04T16:27:29.883Z,53.66
2023-06-04T16:29:35.406Z,53.39
2023-06-04T16:31:41.141Z,52.93
2023-06-04T16:33:47.317Z,52.49
2023-06-04T16:35:54.851Z,53.12
2023-06-04T16:37:58.643Z,53.44
2023-06-04T16:40:03.300Z,53.64
2023-06-04T16:42:09.096Z,53.36
2023-06-04T16:44:13.009Z,52.89
2023-06-04T16:46:17.470Z,52.72
2023-06-04T16:48:23.523Z,52.59
2023-06-04T16:50:32.768Z,52.71
2023-06-04T16:52:37.461Z,52.23
2023-06-04T16:54:43.764Z,52.43
2023-06-04T16:56:48.512Z,51.76
2023-06-04T16:58:52.630Z,51.07
2023-06-04T17:00:57.582Z,51.74
2023-06-04T17:03:01.466Z,52.84
2023-06-04T17:05:20.464Z,52.33
2023-06-04T17:07:30.250Z,51.75
2023-06-04T17:09:35.187Z,51.75
2023-06-04T17:11:40.349Z,51.75
2023-06-04T17:13:44.432Z,51.64
2023-06-04T17:15:48.971Z,51.94
2023-06-04T17:17:53.584Z,52.16
2023-06-04T17:19:58.695Z,51.86
2023-06-04T17:22:06.819Z,52.18
2023-06-04T17:24:11.446Z,52.47
2023-06-04T17:26:16.697Z,52.64
2023-06-04T17:28:21.797Z,52.63
2023-06-04T17:30:25.815Z,52.69
2023-06-04T17:32:32.260Z,52.68
2023-06-04T17:34:37.062Z,52.06
2023-06-04T17:36:42.301Z,51.85
2023-06-04T17:38:47.710Z,52.18
2023-06-04T17:40:53.956Z,52.71
2023-06-04T17:42:57.838Z,52.15
2023-06-04T17:45:05.433Z,52.19
2023-06-04T17:47:09.147Z,51.78
2023-06-04T17:49:14.446Z,51.83
2023-06-04T17:51:18.358Z,52.00
2023-06-04T17:53:22.188Z,52.54
2023-06-04T17:55:27.359Z,52.29
2023-06-04T17:57:31.833Z,51.82
2023-06-04T17:59:36.954Z,52.08
2023-06-04T18:01:44.280Z,52.34
2023-06-04T18:03:51.732Z,52.42
2023-06-04T18:05:56.005Z,52.74
2023-06-04T18:07:59.741Z,52.91
2023-06-04T18:10:03.526Z,53.29
2023-06-04T18:12:12.219Z,53.64
2023-06-04T18:14:16.070Z,54.38
2023-06-04T18:16:20.011Z,54.30
2023-06-04T18:18:25.198Z,54.36
2023-06-04T18:20:29.155Z,53.83
2023-06-04T18:22:32.861Z,53.96
2023-06-04T18:24:38.351Z,54.23
2023-06-04T18:26:42.175Z,54.48
2023-06-04T18:28:47.935Z,54.12
2023-06-04T18:30:51.517Z,54.25
2023-06-04T18:32:55.838Z,54.47
2023-06-04T18:34:59.937Z,54.20
2023-06-04T18:37:03.975Z,54.44
2023-06-04T18:39:07.480Z,54.43
2023-06-04T18:41:11.218Z,54.61
2023-06-04T18:43:14.765Z,54.71
2023-06-04T18:45:20.093Z,55.24
2023-06-04T18:47:23.931Z,55.13
2023-06-04T18:49:27.732Z,55.03
2023-06-04T18:51:32.154Z,54.99
2023-06-04T18:53:35.929Z,55.04
2023-06-04T18:55:39.898Z,55.22
2023-06-04T18:57:44.002Z,55.01
2023-06-04T18:59:47.753Z,54.92
2023-06-04T19:01:52.844Z,54.61
2023-06-04T19:03:56.564Z,54.75
2023-06-04T19:06:00.470Z,54.60
2023-06-04T19:08:04.263Z,54.71
2023-06-04T19:10:09.582Z,54.31
2023-06-04T19:12:13.202Z,54.55
2023-06-04T19:14:16.838Z,54.36
2023-06-04T19:16:20.789Z,54.44
2023-06-04T19:18:26.460Z,54.49
2023-06-04T19:20:30.664Z,54.44
2023-06-04T19:22:34.670Z,55.01
2023-06-04T19:24:38.527Z,55.38
2023-06-04T19:26:43.969Z,55.35
2023-06-04T19:28:48.999Z,55.31
2023-06-04T19:30:53.723Z,55.13
2023-06-04T19:32:57.565Z,55.52
2023-06-04T19:35:03.696Z,55.81
2023-06-04T19:37:08.889Z,55.95
2023-06-04T19:39:13.005Z,56.45
2023-06-04T19:41:16.935Z,56.65
2023-06-04T19:43:21.676Z,56.97
2023-06-04T19:45:25.664Z,57.22
2023-06-04T19:47:29.554Z,57.64
2023-06-04T19:49:33.133Z,57.87
2023-06-04T19:51:38.621Z,57.82
2023-06-04T19:53:42.199Z,58.16
2023-06-04T19:55:46.443Z,58.31
2023-06-04T19:57:50.432Z,58.50
2023-06-04T19:59:55.065Z,58.59
2023-06-04T20:01:58.798Z,58.89
2023-06-04T20:04:02.847Z,58.96
2023-06-04T20:06:08.042Z,59.38
2023-06-04T20:08:14.639Z,59.65
2023-06-04T20:10:19.361Z,59.85
2023-06-04T20:12:23.441Z,60.31
2023-06-04T20:14:27.207Z,60.51
2023-06-04T20:16:31.571Z,61.13
2023-06-04T20:18:35.736Z,61.30
2023-06-04T20:20:40.867Z,61.65
2023-06-04T20:22:44.666Z,62.14
2023-06-04T20:24:49.979Z,62.04
2023-06-04T20:26:54.079Z,62.61
2023-06-04T20:28:58.625Z,63.40
2023-06-04T20:31:02.366Z,63.34
2023-06-04T20:33:06.280Z,63.51
2023-06-04T20:35:11.188Z,63.88
2023-06-04T20:37:15.054Z,63.98
2023-06-04T20:39:18.604Z,64.54
2023-06-04T20:41:25.160Z,65.28
2023-06-04T20:43:28.773Z,65.94
2023-06-04T20:45:32.388Z,65.94
2023-06-04T20:47:36.092Z,66.75
2023-06-04T20:49:39.869Z,67.04
2023-06-04T20:51:43.499Z,66.77
2023-06-04T20:53:49.214Z,66.95
2023-06-04T20:55:53.410Z,67.17
2023-06-04T20:58:00.406Z,67.29
2023-06-04T21:00:04.768Z,67.58
2023-06-04T21:02:11.973Z,68.11
2023-06-04T21:04:16.822Z,67.65
2023-06-04T21:06:21.366Z,68.47
2023-06-04T21:08:27.230Z,68.11
2023-06-04T21:10:32.594Z,68.73
2023-06-04T21:12:37.594Z,68.23
2023-06-04T21:14:44.373Z,68.48
2023-06-04T21:16:49.947Z,68.79
2023-06-04T21:18:54.370Z,68.95
2023-06-04T21:20:59.271Z,69.09
2023-06-04T21:23:02.364Z,70.03
2023-06-04T21:25:06.376Z,69.10
2023-06-04T21:27:10.041Z,70.32
2023-06-04T21:29:14.685Z,70.35
2023-06-04T21:31:20.537Z,70.57
2023-06-04T21:33:25.406Z,71.35
2023-06-04T21:35:29.895Z,71.93
2023-06-04T21:37:34.340Z,71.66
2023-06-04T21:39:38.473Z,71.48
2023-06-04T21:41:43.155Z,71.75
2023-06-04T21:43:47.286Z,73.00
2023-06-04T21:45:52.349Z,72.63
2023-06-04T21:47:58.769Z,73.29
2023-06-04T21:50:03.466Z,73.07
2023-06-04T21:52:17.743Z,73.38
2023-06-04T21:54:30.739Z,73.24
2023-06-04T21:56:34.662Z,74.03
2023-06-04T21:58:40.572Z,73.96
2023-06-04T22:00:46.187Z,74.40
2023-06-04T22:02:50.638Z,74.21
2023-06-04T22:04:56.145Z,75.89
2023-06-04T22:07:02.081Z,74.64
2023-06-04T22:09:07.448Z,74.07
2023-06-04T22:11:11.888Z,74.34
2023-06-04T22:13:19.047Z,74.38
2023-06-04T22:15:24.268Z,75.12
2023-06-04T22:17:28.200Z,75.21
2023-06-04T22:19:32.333Z,76.08
2023-06-04T22:21:38.881Z,76.42
2023-06-04T22:23:42.860Z,76.48
2023-06-04T22:25:48.844Z,76.50
2023-06-04T22:27:53.939Z,76.80
2023-06-04T22:29:58.388Z,77.38
2023-06-04T22:32:03.454Z,77.16
2023-06-04T22:34:07.444Z,77.72
2023-06-04T22:36:13.233Z,77.67
2023-06-04T22:38:19.823Z,78.36
2023-06-04T22:40:26.072Z,78.11
2023-06-04T22:42:30.306Z,77.82
2023-06-04T22:44:34.174Z,78.14
2023-06-04T22:46:38.536Z,78.21
2023-06-04T22:48:42.997Z,78.29
2023-06-04T22:50:50.222Z,77.81
2023-06-04T22:52:54.031Z,78.09
2023-06-04T22:54:59.337Z,78.49
2023-06-04T22:57:03.052Z,78.08
2023-06-04T22:59:07.377Z,78.29
2023-06-04T23:01:12.349Z,78.36
2023-06-04T23:03:17.972Z,78.29
2023-06-04T23:05:23.754Z,77.85
2023-06-04T23:07:27.814Z,78.49
2023-06-04T23:09:32.763Z,78.31
2023-06-04T23:11:39.045Z,77.66
2023-06-04T23:13:42.704Z,78.69
2023-06-04T23:15:46.372Z,78.57
2023-06-04T23:17:51.736Z,78.23
2023-06-04T23:19:56.889Z,78.51
2023-06-04T23:22:00.987Z,78.65
2023-06-04T23:24:05.574Z,78.67
2023-06-04T23:26:10.057Z,78.35
2023-06-04T23:28:16.085Z,77.96
2023-06-04T23:30:20.731Z,78.07
2023-06-04T23:32:24.960Z,78.35
2023-06-04T23:34:29.673Z,78.72
2023-06-04T23:36:33.201Z,78.78
2023-06-04T23:38:38.288Z,78.63
2023-06-04T23:40:42.749Z,78.32
2023-06-04T23:42:47.493Z,78.97
2023-06-04T23:44:52.745Z,78.77
2023-06-04T23:46:56.718Z,79.19
2023-06-04T23:49:01.418Z,79.26
2023-06-04T23:51:05.104Z,80.13
2023-06-04T23:53:08.886Z,79.10
2023-06-04T23:55:13.219Z,79.28
2023-06-04T23:57:16.930Z,79.03
2023-06-04T23:59:20.684Z,78.73
